Time;durP1;ratioP1;P1;durP2;ratioP2;P2;SDS_P1;SDS_P2;PMS_P1;PMS_P2;Temp;Humidity;BMP_temperature;BMP_pressure;BME280_temperature;BME280_humidity;BME280_pressure;Samples;Min_cycle;Max_cycle;Signal;HPM_P1;HPM_P2
2022/03/11 00:00:39;;;;;;;0.00;0.00;;;;;;;5.44;39.03;98831.69;4979650;28;20198;-61
2022/03/11 00:03:10;;;;;;;0.00;0.00;;;;;;;5.49;40.76;98820.19;4979091;28;20254;-62
2022/03/11 00:05:39;;;;;;;0.00;0.00;;;;;;;5.49;39.19;98820.19;4976810;28;20215;-62
2022/03/11 00:08:07;;;;;;;0.00;0.00;;;;;;;5.49;39.89;98827.94;4988679;28;20202;-63
2022/03/11 00:10:34;;;;;;;0.00;0.00;;;;;;;5.59;38.09;98821.16;4957343;28;20560;-62
2022/03/11 00:13:01;;;;;;;0.00;0.00;;;;;;;5.79;38.18;98817.09;4975223;28;20267;-61
2022/03/11 00:15:29;;;;;;;0.00;0.00;;;;;;;5.69;38.73;98819.53;4973526;28;20269;-62
2022/03/11 00:17:56;;;;;;;0.00;0.00;;;;;;;5.59;39.59;98810.78;4973873;28;20186;-62
2022/03/11 00:20:24;;;;;;;0.00;0.00;;;;;;;5.71;38.62;98822.84;4974290;28;20194;-61
2022/03/11 00:22:55;;;;;;;0.00;0.00;;;;;;;5.66;39.07;98818.94;4974119;28;20185;-61
2022/03/11 00:25:22;;;;;;;0.00;0.00;;;;;;;5.65;39.79;98818.13;4972950;28;20220;-62
2022/03/11 00:27:49;;;;;;;0.00;0.00;;;;;;;5.67;39.39;98813.63;4972846;28;20186;-62
2022/03/11 00:30:16;;;;;;;0.00;0.00;;;;;;;5.64;40.34;98813.88;4973246;28;20191;-62
2022/03/11 00:32:44;;;;;;;0.00;0.00;;;;;;;5.50;41.72;98811.47;4962578;28;20578;-62
2022/03/11 00:35:12;;;;;;;0.00;0.00;;;;;;;5.36;42.05;98818.50;4953497;29;20226;-62
2022/03/11 00:37:40;;;;;;;0.00;0.00;;;;;;;5.28;42.27;98813.91;4953731;29;20193;-62
2022/03/11 00:40:11;;;;;;;0.00;0.00;;;;;;;5.10;41.85;98818.66;4953114;28;20243;-60
2022/03/11 00:42:38;;;;;;;0.00;0.00;;;;;;;5.07;41.75;98813.72;4953088;29;20194;-61
2022/03/11 00:45:06;;;;;;;0.00;0.00;;;;;;;4.92;42.99;98814.81;4953312;28;20225;-59
2022/03/11 00:47:33;;;;;;;0.00;0.00;;;;;;;4.81;43.49;98812.97;4984128;28;20227;-62
2022/03/11 00:50:01;;;;;;;0.00;0.00;;;;;;;4.67;44.01;98803.63;4953184;28;20180;-62
2022/03/11 00:52:28;;;;;;;0.00;0.00;;;;;;;4.47;45.42;98811.00;4952669;29;20550;-62
2022/03/11 00:54:56;;;;;;;0.00;0.00;;;;;;;4.42;44.70;98806.19;4953044;28;20239;-62
2022/03/11 00:57:24;;;;;;;0.00;0.00;;;;;;;4.30;45.43;98812.19;4952990;29;20193;-62
2022/03/11 00:59:51;;;;;;;0.00;0.00;;;;;;;4.14;45.57;98809.84;4955712;28;20457;-62
2022/03/11 01:02:18;;;;;;;0.00;0.00;;;;;;;4.01;46.33;98801.28;4971914;28;20560;-59
2022/03/11 01:04:47;;;;;;;0.00;0.00;;;;;;;3.94;46.38;98806.03;4954590;28;20193;-60
2022/03/11 01:07:14;;;;;;;0.00;0.00;;;;;;;3.86;46.54;98798.81;4972118;28;20209;-63
2022/03/11 01:09:41;;;;;;;0.00;0.00;;;;;;;3.82;46.14;98795.59;4971966;28;20237;-62
2022/03/11 01:12:08;;;;;;;0.00;0.00;;;;;;;3.81;46.14;98798.28;4971893;28;20517;-62
2022/03/11 01:14:37;;;;;;;0.00;0.00;;;;;;;3.76;47.85;98790.84;4972028;28;20204;-60
2022/03/11 01:17:04;;;;;;;0.00;0.00;;;;;;;3.75;47.61;98798.69;4971810;28;20202;-61
2022/03/11 01:19:31;;;;;;;0.00;0.00;;;;;;;3.63;49.12;98798.59;4972299;28;20191;-61
2022/03/11 01:21:58;;;;;;;0.00;0.00;;;;;;;3.50;48.90;98790.84;4971925;28;20236;-61
2022/03/11 01:24:25;;;;;;;0.00;0.00;;;;;;;3.41;48.78;98791.44;4971876;28;20560;-59
2022/03/11 01:26:52;;;;;;;0.00;0.00;;;;;;;3.22;50.46;98794.38;4972454;28;20205;-61
2022/03/11 01:29:22;;;;;;;0.00;0.00;;;;;;;3.10;49.78;98794.28;4972468;28;20190;-62
2022/03/11 01:31:51;;;;;;;0.00;0.00;;;;;;;2.93;49.93;98791.97;4972357;28;20213;-60
2022/03/11 01:34:19;;;;;;;0.00;0.00;;;;;;;2.83;50.66;98791.69;4961630;28;20202;-62
2022/03/11 01:36:46;;;;;;;0.00;0.00;;;;;;;2.67;51.65;98786.69;4953135;28;20206;-61
2022/03/11 01:39:13;;;;;;;0.00;0.00;;;;;;;2.73;50.07;98794.03;4952396;29;20210;-61
2022/03/11 01:41:40;;;;;;;0.00;0.00;;;;;;;2.60;51.55;98782.84;4952370;29;20191;-62
2022/03/11 01:44:09;;;;;;;0.00;0.00;;;;;;;2.47;51.90;98775.88;4982737;28;20203;-62
2022/03/11 01:46:38;;;;;;;0.00;0.00;;;;;;;2.44;53.15;98772.69;4983308;28;20215;-62
2022/03/11 01:49:09;;;;;;;0.00;0.00;;;;;;;2.29;52.87;98770.13;4952371;29;20194;-61
2022/03/11 01:51:40;;;;;;;0.00;0.00;;;;;;;2.33;51.86;98770.75;4983342;28;20196;-63
2022/03/11 01:54:07;;;;;;;0.00;0.00;;;;;;;2.26;52.42;98774.63;4951763;29;20218;-63
2022/03/11 01:56:36;;;;;;;0.00;0.00;;;;;;;2.31;53.24;98773.44;4952305;29;20684;-62
2022/03/11 01:59:03;;;;;;;0.00;0.00;;;;;;;2.24;53.25;98764.44;4952311;29;20225;-59
2022/03/11 02:01:31;;;;;;;0.00;0.00;;;;;;;2.22;51.66;98776.59;4987914;23;20217;-60
2022/03/11 02:03:58;;;;;;;0.00;0.00;;;;;;;2.13;54.19;98770.22;5049069;28;20271;-60
2022/03/11 02:06:27;;;;;;;0.00;0.00;;;;;;;2.04;53.78;98763.91;5049997;28;20191;-60
2022/03/11 02:08:55;;;;;;;0.00;0.00;;;;;;;2.01;53.29;98773.56;5049610;28;20550;-60
2022/03/11 02:11:22;;;;;;;0.00;0.00;;;;;;;1.92;54.95;98769.78;5030037;28;20189;-60
2022/03/11 02:13:52;;;;;;;0.00;0.00;;;;;;;2.05;53.35;98772.47;5042450;28;20219;-60
2022/03/11 02:16:21;;;;;;;0.00;0.00;;;;;;;2.09;53.79;98768.78;5049435;28;20187;-60
2022/03/11 02:18:49;;;;;;;0.00;0.00;;;;;;;1.99;53.48;98765.13;5049775;28;20188;-60
2022/03/11 02:21:18;;;;;;;0.00;0.00;;;;;;;1.95;53.89;98769.59;5049585;28;20211;-60
2022/03/11 02:23:46;;;;;;;0.00;0.00;;;;;;;2.04;54.06;98773.38;5049643;28;20603;-60
2022/03/11 02:26:14;;;;;;;0.00;0.00;;;;;;;1.92;53.88;98765.47;5049095;28;20241;-60
2022/03/11 02:28:41;;;;;;;0.00;0.00;;;;;;;2.18;52.80;98769.97;5049747;28;20195;-60
2022/03/11 02:31:08;;;;;;;0.00;0.00;;;;;;;2.14;53.69;98774.47;5049537;28;20211;-60
2022/03/11 02:33:35;;;;;;;0.00;0.00;;;;;;;2.09;54.32;98775.66;5038572;28;20324;-60
2022/03/11 02:36:02;;;;;;;0.00;0.00;;;;;;;2.00;54.20;98772.72;5022977;28;20196;-60
2022/03/11 02:38:28;;;;;;;0.00;0.00;;;;;;;1.92;54.50;98772.38;5028266;28;20202;-60
2022/03/11 02:40:56;;;;;;;0.00;0.00;;;;;;;1.86;56.42;98770.16;5027951;28;20223;-60
2022/03/11 02:43:24;;;;;;;0.00;0.00;;;;;;;1.74;55.80;98766.59;5028792;28;20654;-60
2022/03/11 02:45:51;;;;;;;0.00;0.00;;;;;;;1.77;54.75;98761.25;5027630;28;20187;-60
2022/03/11 02:48:18;;;;;;;0.00;0.00;;;;;;;1.69;54.51;98758.31;5029932;28;20275;-60
2022/03/11 02:50:47;;;;;;;0.00;0.00;;;;;;;1.56;55.88;98761.59;5028439;28;20237;-60
2022/03/11 02:53:14;;;;;;;0.00;0.00;;;;;;;1.59;57.08;98758.84;5029663;28;20653;-62
2022/03/11 02:55:41;;;;;;;0.00;0.00;;;;;;;1.45;58.51;98763.97;5029429;28;20202;-62
2022/03/11 02:58:09;;;;;;;0.00;0.00;;;;;;;1.38;56.83;98754.94;5033031;28;20187;-61
2022/03/11 03:00:38;;;;;;;0.00;0.00;;;;;;;1.29;56.27;98764.84;5033686;28;20356;-62
2022/03/11 03:03:05;;;;;;;0.00;0.00;;;;;;;1.27;56.41;98764.13;5031728;28;20593;-61
2022/03/11 03:05:31;;;;;;;0.00;0.00;;;;;;;1.21;56.05;98756.75;5031563;28;20620;-61
2022/03/11 03:07:59;;;;;;;0.00;0.00;;;;;;;1.28;56.10;98758.06;5031927;28;20199;-62
2022/03/11 03:10:26;;;;;;;0.00;0.00;;;;;;;1.30;56.13;98753.66;5033205;28;20217;-62
2022/03/11 03:12:53;;;;;;;0.00;0.00;;;;;;;1.26;56.20;98754.75;5032663;28;20205;-61
2022/03/11 03:15:21;;;;;;;0.00;0.00;;;;;;;1.28;56.12;98749.53;5032771;28;20644;-61
2022/03/11 03:17:48;;;;;;;0.00;0.00;;;;;;;1.23;57.96;98752.34;5031029;28;20266;-62
2022/03/11 03:20:16;;;;;;;0.00;0.00;;;;;;;1.20;59.48;98744.00;5031634;28;20218;-61
2022/03/11 03:22:43;;;;;;;0.00;0.00;;;;;;;1.16;57.56;98745.91;5031441;28;20225;-61
2022/03/11 03:25:10;;;;;;;0.00;0.00;;;;;;;1.23;58.31;98743.81;5031638;28;20659;-61
2022/03/11 03:27:37;;;;;;;0.00;0.00;;;;;;;1.23;56.73;98738.69;5031909;28;20196;-61
2022/03/11 03:30:06;;;;;;;0.00;0.00;;;;;;;1.25;58.10;98740.22;5032217;28;20218;-61
2022/03/11 03:32:34;;;;;;;0.00;0.00;;;;;;;1.16;57.65;98735.63;5031603;28;20633;-61
2022/03/11 03:35:01;;;;;;;0.00;0.00;;;;;;;1.15;58.17;98742.50;5031213;28;20186;-61
2022/03/11 03:37:28;;;;;;;0.00;0.00;;;;;;;1.15;57.53;98737.38;5028136;28;20662;-61
2022/03/11 03:39:54;;;;;;;0.00;0.00;;;;;;;1.12;58.26;98737.53;5031543;28;20214;-61
2022/03/11 03:42:22;;;;;;;0.00;0.00;;;;;;;1.14;58.44;98745.16;5031595;28;20198;-61
2022/03/11 03:44:49;;;;;;;0.00;0.00;;;;;;;1.08;56.77;98735.22;5029454;28;20193;-61
2022/03/11 03:47:16;;;;;;;0.00;0.00;;;;;;;1.02;58.14;98739.84;5028523;28;20282;-61
2022/03/11 03:49:44;;;;;;;0.00;0.00;;;;;;;1.02;58.62;98744.97;5038497;28;20794;-61
2022/03/11 03:52:12;;;;;;;0.00;0.00;;;;;;;0.93;57.86;98740.34;5031645;28;20564;-61
2022/03/11 03:54:39;;;;;;;0.00;0.00;;;;;;;0.97;59.13;98741.00;5031005;28;20204;-61
2022/03/11 03:57:06;;;;;;;0.00;0.00;;;;;;;1.01;57.97;98740.75;5031438;28;20226;-61
2022/03/11 03:59:33;;;;;;;0.00;0.00;;;;;;;0.84;58.68;98738.28;5031475;28;20207;-61
2022/03/11 04:02:00;;;;;;;0.00;0.00;;;;;;;0.74;58.90;98745.69;5030872;28;20208;-61
2022/03/11 04:04:27;;;;;;;0.00;0.00;;;;;;;0.71;60.44;98741.56;5030944;28;20186;-61
2022/03/11 04:06:55;;;;;;;0.00;0.00;;;;;;;0.67;59.88;98746.94;5031134;28;20670;-62
2022/03/11 04:09:22;;;;;;;0.00;0.00;;;;;;;0.72;59.88;98747.50;5031051;28;20209;-61
2022/03/11 04:11:49;;;;;;;0.00;0.00;;;;;;;0.66;60.04;98740.97;5029633;28;20946;-61
2022/03/11 04:14:16;;;;;;;0.00;0.00;;;;;;;0.59;61.06;98748.19;5031008;28;20215;-61
2022/03/11 04:16:43;;;;;;;0.00;0.00;;;;;;;0.52;61.30;98746.88;5031459;28;20186;-62
2022/03/11 04:19:09;;;;;;;0.00;0.00;;;;;;;0.78;60.88;98746.34;5031370;28;20194;-61
2022/03/11 04:21:36;;;;;;;0.00;0.00;;;;;;;0.64;61.21;98745.38;5029941;28;20264;-61
2022/03/11 04:24:12;;;;;;;0.00;0.00;;;;;;;0.58;61.84;98756.78;5030479;28;20197;-61
2022/03/11 04:26:41;;;;;;;0.00;0.00;;;;;;;0.57;61.92;98752.56;5031513;28;20189;-61
2022/03/11 04:29:08;;;;;;;0.00;0.00;;;;;;;0.47;61.77;98754.00;5031261;28;20269;-61
2022/03/11 04:31:35;;;;;;;0.00;0.00;;;;;;;0.40;62.87;98755.25;5031148;28;20251;-61
2022/03/11 04:34:02;;;;;;;0.00;0.00;;;;;;;0.33;63.31;98748.78;5030401;28;20217;-61
2022/03/11 04:36:29;;;;;;;0.00;0.00;;;;;;;0.32;62.67;98754.84;5031068;28;20224;-61
2022/03/11 04:38:56;;;;;;;0.00;0.00;;;;;;;0.24;62.17;98750.09;5031272;28;20240;-60
2022/03/11 04:41:24;;;;;;;0.00;0.00;;;;;;;0.27;62.77;98753.34;5030924;28;20186;-61
2022/03/11 04:43:51;;;;;;;0.00;0.00;;;;;;;0.23;62.96;98757.00;5030702;28;20864;-61
2022/03/11 04:46:18;;;;;;;0.00;0.00;;;;;;;0.18;62.92;98753.84;5030619;28;20195;-61
2022/03/11 04:48:47;;;;;;;0.00;0.00;;;;;;;0.12;62.74;98767.81;5030699;28;20261;-61
2022/03/11 04:51:14;;;;;;;0.00;0.00;;;;;;;0.14;63.68;98768.56;5030715;28;20218;-61
2022/03/11 04:53:41;;;;;;;0.00;0.00;;;;;;;0.13;64.15;98763.53;5030401;28;20356;-61
2022/03/11 04:56:09;;;;;;;0.00;0.00;;;;;;;0.10;64.92;98761.94;5030318;28;20716;-61
2022/03/11 04:58:37;;;;;;;0.00;0.00;;;;;;;0.04;65.20;98761.44;5030538;28;20228;-61
2022/03/11 05:01:04;;;;;;;0.00;0.00;;;;;;;0.06;65.83;98767.31;5030200;28;20214;-61
2022/03/11 05:03:34;;;;;;;0.00;0.00;;;;;;;0.02;65.28;98756.38;5030457;28;20204;-61
2022/03/11 05:06:01;;;;;;;0.00;0.00;;;;;;;-0.01;65.55;98769.38;5030132;28;20189;-61
2022/03/11 05:08:28;;;;;;;0.00;0.00;;;;;;;-0.13;64.92;98760.56;5030422;28;20260;-61
2022/03/11 05:10:55;;;;;;;0.00;0.00;;;;;;;-0.21;65.62;98763.53;5030381;28;20205;-61
2022/03/11 05:13:24;;;;;;;0.00;0.00;;;;;;;-0.32;66.30;98761.50;5030149;28;20289;-61
2022/03/11 05:15:52;;;;;;;0.00;0.00;;;;;;;-0.36;67.22;98762.59;5029884;28;20221;-61
2022/03/11 05:18:19;;;;;;;0.00;0.00;;;;;;;-0.41;67.13;98756.03;5030461;28;20185;-61
2022/03/11 05:20:45;;;;;;;0.00;0.00;;;;;;;-0.28;66.49;98749.38;5029848;28;20266;-61
2022/03/11 05:23:13;;;;;;;0.00;0.00;;;;;;;-0.31;66.18;98754.66;5030350;28;20214;-61
2022/03/11 05:25:40;;;;;;;0.00;0.00;;;;;;;-0.33;66.33;98748.78;5029857;28;20221;-61
2022/03/11 05:28:08;;;;;;;0.00;0.00;;;;;;;-0.33;66.31;98746.22;5030147;28;20193;-61
2022/03/11 05:30:36;;;;;;;0.00;0.00;;;;;;;-0.37;66.39;98749.84;5030084;28;20210;-61
2022/03/11 05:33:05;;;;;;;0.00;0.00;;;;;;;-0.45;66.91;98755.34;5030154;28;20194;-61
2022/03/11 05:35:33;;;;;;;0.00;0.00;;;;;;;-0.51;67.43;98759.06;5029629;28;20600;-61
2022/03/11 05:38:00;;;;;;;0.00;0.00;;;;;;;-0.53;67.81;98767.75;5030028;28;20205;-61
2022/03/11 05:40:27;;;;;;;0.00;0.00;;;;;;;-0.49;67.66;98759.81;5029939;28;20602;-60
2022/03/11 05:42:55;;;;;;;0.00;0.00;;;;;;;-0.38;66.85;98763.59;5029720;28;20198;-61
2022/03/11 05:45:22;;;;;;;0.00;0.00;;;;;;;-0.39;66.57;98765.31;5029578;28;20186;-61
2022/03/11 05:47:49;;;;;;;0.00;0.00;;;;;;;-0.30;65.54;98766.59;5030103;28;20185;-62
2022/03/11 05:50:17;;;;;;;0.00;0.00;;;;;;;-0.26;65.78;98760.38;5029908;28;20213;-62
2022/03/11 05:52:44;;;;;;;0.00;0.00;;;;;;;-0.24;65.60;98765.44;5029668;28;20668;-62
2022/03/11 05:55:12;;;;;;;0.00;0.00;;;;;;;-0.22;65.36;98764.47;5028367;28;20641;-62
2022/03/11 05:57:38;;;;;;;0.00;0.00;;;;;;;-0.22;65.15;98761.03;5025998;28;20201;-62
2022/03/11 06:00:07;;;;;;;0.00;0.00;;;;;;;-0.26;65.12;98768.09;5029315;28;20692;-62
2022/03/11 06:02:40;;;;;;;0.00;0.00;;;;;;;-0.27;65.72;98774.13;5029430;28;20260;-62
2022/03/11 06:05:09;;;;;;;0.00;0.00;;;;;;;-0.10;65.60;98777.56;5028463;28;20268;-62
2022/03/11 06:07:37;;;;;;;0.00;0.00;;;;;;;-0.09;65.52;98786.91;5026586;28;20201;-62
2022/03/11 06:10:05;;;;;;;0.00;0.00;;;;;;;-0.08;64.81;98788.56;5029246;28;20214;-62
2022/03/11 06:12:32;;;;;;;0.00;0.00;;;;;;;-0.09;65.96;98776.66;5029293;28;20198;-61
2022/03/11 06:14:58;;;;;;;0.00;0.00;;;;;;;-0.09;66.41;98792.06;5029121;28;20214;-61
2022/03/11 06:17:25;;;;;;;0.00;0.00;;;;;;;-0.02;65.77;98789.06;5029658;28;20239;-61
2022/03/11 06:19:52;;;;;;;0.00;0.00;;;;;;;0.02;66.49;98794.88;5026301;28;20710;-61
2022/03/11 06:22:19;;;;;;;0.00;0.00;;;;;;;0.14;66.39;98794.22;5026566;28;20205;-61
2022/03/11 06:24:48;;;;;;;0.00;0.00;;;;;;;0.07;66.18;98789.50;5028816;28;20190;-61
2022/03/11 06:27:15;;;;;;;0.00;0.00;;;;;;;0.01;66.42;98793.19;5025057;28;20199;-61
2022/03/11 06:29:42;;;;;;;0.00;0.00;;;;;;;-0.03;66.46;98791.75;5029168;28;20230;-61
2022/03/11 06:32:09;;;;;;;0.00;0.00;;;;;;;-0.03;66.86;98786.59;5031392;28;20187;-61
2022/03/11 06:34:37;;;;;;;0.00;0.00;;;;;;;-0.04;67.09;98790.88;5032833;28;20614;-61
2022/03/11 06:37:04;;;;;;;0.00;0.00;;;;;;;-0.01;66.14;98795.88;5029920;28;20194;-60
2022/03/11 06:39:31;;;;;;;0.00;0.00;;;;;;;0.00;66.41;98796.72;5030643;28;20224;-60
2022/03/11 06:41:59;;;;;;;0.00;0.00;;;;;;;0.05;65.58;98787.00;5032671;28;20186;-60
2022/03/11 06:44:31;;;;;;;0.00;0.00;;;;;;;0.07;65.84;98781.81;5032796;28;20701;-60
2022/03/11 06:46:58;;;;;;;0.00;0.00;;;;;;;0.10;66.07;98773.94;5033128;28;20191;-60
2022/03/11 06:49:25;;;;;;;0.00;0.00;;;;;;;0.12;65.96;98775.50;5032802;28;20686;-61
2022/03/11 06:51:52;;;;;;;0.00;0.00;;;;;;;0.20;65.56;98766.56;5032655;28;20713;-61
2022/03/11 06:54:19;;;;;;;0.00;0.00;;;;;;;0.22;66.01;98764.75;5032513;28;20226;-61
2022/03/11 06:56:46;;;;;;;0.00;0.00;;;;;;;0.32;66.17;98767.69;5028782;28;20214;-60
2022/03/11 06:59:14;;;;;;;0.00;0.00;;;;;;;0.37;67.06;98768.25;5032525;28;20213;-61
2022/03/11 07:01:44;;;;;;;0.00;0.00;;;;;;;0.43;66.96;98767.94;5027024;28;20686;-64
2022/03/11 07:04:10;;;;;;;0.00;0.00;;;;;;;0.46;65.89;98766.91;5031939;28;20196;-64
2022/03/11 07:06:37;;;;;;;0.00;0.00;;;;;;;0.55;65.63;98776.69;5032464;28;20605;-64
2022/03/11 07:09:04;;;;;;;0.00;0.00;;;;;;;0.64;65.55;98773.63;5032674;28;20192;-63
2022/03/11 07:11:32;;;;;;;0.00;0.00;;;;;;;0.79;65.56;98773.69;5032672;28;20217;-64
2022/03/11 07:13:59;;;;;;;0.00;0.00;;;;;;;0.93;65.81;98773.75;5031842;28;20275;-64
2022/03/11 07:16:27;;;;;;;0.00;0.00;;;;;;;1.01;66.30;98783.59;5032436;28;20236;-63
2022/03/11 07:18:53;;;;;;;0.00;0.00;;;;;;;1.02;66.62;98774.97;5032363;28;20235;-64
2022/03/11 07:21:20;;;;;;;0.00;0.00;;;;;;;1.05;66.11;98779.13;5031145;28;20565;-64
2022/03/11 07:23:54;;;;;;;0.00;0.00;;;;;;;1.13;65.12;98779.50;5032181;28;20199;-64
2022/03/11 07:26:21;;;;;;;0.00;0.00;;;;;;;1.16;64.95;98775.03;5032085;28;20203;-64
2022/03/11 07:28:48;;;;;;;0.00;0.00;;;;;;;1.23;65.47;98775.50;5032454;28;20216;-64
2022/03/11 07:31:15;;;;;;;0.00;0.00;;;;;;;1.30;64.00;98784.50;5032051;28;20215;-64
2022/03/11 07:33:43;;;;;;;0.00;0.00;;;;;;;1.40;64.17;98779.69;5031923;28;20667;-64
2022/03/11 07:36:10;;;;;;;0.00;0.00;;;;;;;1.46;64.06;98775.91;5031907;28;20445;-64
2022/03/11 07:38:37;;;;;;;0.00;0.00;;;;;;;1.53;63.42;98778.97;5032105;28;20187;-64
2022/03/11 07:41:07;;;;;;;0.00;0.00;;;;;;;1.58;63.02;98771.81;5032394;28;20219;-64
2022/03/11 07:43:35;;;;;;;0.00;0.00;;;;;;;1.66;63.63;98774.72;5031433;28;20184;-64
2022/03/11 07:46:02;;;;;;;0.00;0.00;;;;;;;1.72;63.16;98787.25;5031517;28;20180;-63
2022/03/11 07:48:29;;;;;;;0.00;0.00;;;;;;;1.75;63.33;98781.91;5031846;28;20192;-63
2022/03/11 07:50:58;;;;;;;0.00;0.00;;;;;;;1.77;62.91;98785.22;5031860;28;20211;-63
2022/03/11 07:53:24;;;;;;;0.00;0.00;;;;;;;1.84;62.76;98783.13;5031729;28;20189;-64
2022/03/11 07:55:51;;;;;;;0.00;0.00;;;;;;;1.91;62.78;98779.28;5031270;28;20265;-63
2022/03/11 07:58:21;;;;;;;0.00;0.00;;;;;;;2.01;62.55;98779.53;5030355;28;20283;-63
2022/03/11 08:00:48;;;;;;;0.00;0.00;;;;;;;2.17;61.71;98774.28;5031838;28;20214;-64
2022/03/11 08:03:15;;;;;;;0.00;0.00;;;;;;;2.31;62.24;98770.88;5031542;28;20180;-64
2022/03/11 08:05:42;;;;;;;0.00;0.00;;;;;;;2.48;62.18;98769.00;5031210;28;20187;-63
2022/03/11 08:08:10;;;;;;;0.00;0.00;;;;;;;2.62;60.91;98771.53;5031595;28;20192;-64
2022/03/11 08:10:37;;;;;;;0.00;0.00;;;;;;;2.79;60.93;98780.78;5031494;28;20208;-64
2022/03/11 08:13:06;;;;;;;0.00;0.00;;;;;;;2.96;60.78;98773.72;5031125;28;20648;-64
2022/03/11 08:15:33;;;;;;;0.00;0.00;;;;;;;3.12;60.15;98776.13;5029044;28;20682;-63
2022/03/11 08:18:00;;;;;;;0.00;0.00;;;;;;;3.23;59.29;98778.00;5029173;28;20460;-64
2022/03/11 08:20:27;;;;;;;0.00;0.00;;;;;;;3.35;57.95;98779.75;5030885;28;20267;-63
2022/03/11 08:22:54;;;;;;;0.00;0.00;;;;;;;3.53;56.53;98779.47;5031090;28;20658;-63
2022/03/11 08:25:26;;;;;;;0.00;0.00;;;;;;;3.60;57.47;98785.06;5028962;28;20288;-63
2022/03/11 08:27:54;;;;;;;0.00;0.00;;;;;;;3.75;57.66;98783.22;5023845;28;20279;-64
2022/03/11 08:30:22;;;;;;;0.00;0.00;;;;;;;3.75;56.88;98791.78;5030959;28;20204;-63
2022/03/11 08:32:49;;;;;;;0.00;0.00;;;;;;;3.86;56.86;98785.91;5030842;28;20187;-64
2022/03/11 08:35:16;;;;;;;0.00;0.00;;;;;;;3.89;57.02;98782.25;5030656;28;20212;-64
2022/03/11 08:37:42;;;;;;;0.00;0.00;;;;;;;3.94;57.18;98793.13;5030919;28;20366;-64
2022/03/11 08:42:45;;;;;;;0.00;0.00;;;;;;;3.87;57.54;98802.19;5003023;28;20208;-62
2022/03/11 08:45:12;;;;;;;0.00;0.00;;;;;;;3.86;58.82;98801.41;5018619;28;20264;-62
2022/03/11 08:47:39;;;;;;;0.00;0.00;;;;;;;3.85;58.12;98804.91;5026302;28;20244;-62
2022/03/11 08:50:06;;;;;;;0.00;0.00;;;;;;;3.95;58.19;98805.94;5009786;28;20195;-58
2022/03/11 08:52:34;;;;;;;0.00;0.00;;;;;;;3.92;58.07;98806.13;4989295;28;20686;-62
2022/03/11 08:55:01;;;;;;;0.00;0.00;;;;;;;3.98;56.72;98803.16;5004572;28;20758;-62
2022/03/11 08:57:28;;;;;;;0.00;0.00;;;;;;;4.01;56.90;98806.44;5008824;28;20193;-62
2022/03/11 08:59:56;;;;;;;0.00;0.00;;;;;;;4.03;56.45;98807.19;5020514;28;20383;-63
2022/03/11 09:02:23;;;;;;;0.00;0.00;;;;;;;4.09;55.37;98810.16;5012318;28;20217;-63
2022/03/11 09:04:50;;;;;;;0.00;0.00;;;;;;;4.13;55.34;98813.38;5011899;28;20672;-63
2022/03/11 09:07:17;;;;;;;0.00;0.00;;;;;;;4.18;55.42;98808.72;5012805;28;20192;-63
2022/03/11 09:09:44;;;;;;;0.00;0.00;;;;;;;4.33;54.45;98808.56;4992402;28;20204;-63
2022/03/11 09:12:11;;;;;;;0.00;0.00;;;;;;;4.43;54.25;98815.59;5009789;28;20300;-63
2022/03/11 09:14:38;;;;;;;0.00;0.00;;;;;;;4.41;53.91;98812.28;4993206;28;20704;-63
2022/03/11 09:17:07;;;;;;;0.00;0.00;;;;;;;4.46;55.18;98811.13;5011465;28;20714;-62
2022/03/11 09:19:35;;;;;;;0.00;0.00;;;;;;;4.62;54.20;98795.34;5011376;28;20185;-63
2022/03/11 09:22:02;;;;;;;0.00;0.00;;;;;;;4.76;53.93;98802.16;5011088;28;20577;-62
2022/03/11 09:24:28;;;;;;;0.00;0.00;;;;;;;4.78;52.85;98801.09;5010648;28;20188;-63
2022/03/11 09:26:55;;;;;;;0.00;0.00;;;;;;;4.80;53.25;98794.06;5011340;28;20204;-63
2022/03/11 09:29:23;;;;;;;0.00;0.00;;;;;;;4.90;53.45;98794.22;5011212;28;20305;-62
2022/03/11 09:31:50;;;;;;;0.00;0.00;;;;;;;4.91;53.09;98793.28;5010873;28;20208;-62
2022/03/11 09:34:18;;;;;;;0.00;0.00;;;;;;;5.01;53.79;98783.91;5010610;28;20210;-64
2022/03/11 09:36:45;;;;;;;20.67;11.93;;;;;;;5.21;52.87;98783.41;5011625;28;20185;-61
2022/03/11 09:39:12;;;;;;;21.33;11.23;;;;;;;5.21;51.90;98789.41;5010897;28;20712;-61
2022/03/11 09:41:41;;;;;;;20.33;11.27;;;;;;;5.30;52.46;98791.31;5010802;28;20221;-61
2022/03/11 09:44:09;;;;;;;18.47;10.53;;;;;;;5.34;52.61;98796.25;5010456;28;20193;-61
2022/03/11 09:46:36;;;;;;;21.10;11.23;;;;;;;5.42;51.76;98799.94;5010839;28;20185;-61
2022/03/11 09:49:04;;;;;;;19.37;10.53;;;;;;;5.51;51.87;98795.00;5011103;28;20190;-61
2022/03/11 09:51:34;;;;;;;21.73;12.07;;;;;;;5.48;51.72;98796.06;5010712;28;20288;-62
2022/03/11 09:54:02;;;;;;;20.57;11.60;;;;;;;5.68;50.27;98797.16;5010183;28;20760;-61
2022/03/11 09:56:29;;;;;;;19.17;10.93;;;;;;;5.79;49.54;98809.31;5010350;28;20222;-62
2022/03/11 09:58:56;;;;;;;21.13;11.87;;;;;;;5.75;50.41;98797.53;5010983;28;20721;-61
2022/03/11 10:01:23;;;;;;;19.73;11.00;;;;;;;5.87;50.39;98795.78;5010744;28;20303;-61
2022/03/11 10:03:50;;;;;;;18.53;11.17;;;;;;;6.01;50.31;98792.16;5010626;28;20185;-62
2022/03/11 10:06:16;;;;;;;18.77;10.93;;;;;;;5.91;51.03;98792.81;5012442;28;20180;-62
2022/03/11 10:08:46;;;;;;;24.03;12.67;;;;;;;5.98;51.23;98793.19;5014906;28;20194;-61
2022/03/11 10:11:21;;;;;;;21.10;11.27;;;;;;;6.16;50.75;98790.16;5014739;28;20260;-62
2022/03/11 10:13:51;;;;;;;24.43;12.37;;;;;;;6.23;50.01;98793.94;5014691;28;20215;-61
2022/03/11 10:16:19;;;;;;;21.77;11.30;;;;;;;6.29;49.02;98788.28;5014350;28;20264;-61
2022/03/11 10:18:57;;;;;;;21.80;12.33;;;;;;;6.32;50.98;98788.03;5014544;28;20189;-62
2022/03/11 10:21:29;;;;;;;20.27;12.50;;;;;;;6.41;50.17;98783.06;5014590;28;20829;-62
2022/03/11 10:23:57;;;;;;;19.80;11.83;;;;;;;6.55;49.35;98779.38;5014218;28;20186;-62
2022/03/11 10:26:37;;;;;;;22.37;12.60;;;;;;;6.60;49.53;98777.25;4996912;28;20263;-62
2022/03/11 10:29:06;;;;;;;22.80;12.33;;;;;;;6.74;49.10;98776.16;5014385;28;20219;-61
2022/03/11 10:31:34;;;;;;;23.47;13.53;;;;;;;6.75;49.50;98776.03;5014397;28;20210;-61
2022/03/11 10:34:19;;;;;;;24.33;13.40;;;;;;;6.76;50.34;98775.09;5013772;28;20194;-62
2022/03/11 10:36:51;;;;;;;23.80;11.77;;;;;;;6.93;50.04;98771.13;5014322;28;20236;-60
2022/03/11 10:39:21;;;;;;;21.23;12.27;;;;;;;7.10;49.07;98768.94;5014380;28;20181;-60
2022/03/11 10:41:53;;;;;;;22.57;12.07;;;;;;;7.13;48.76;98767.84;5013876;28;20227;-60
2022/03/11 10:44:22;;;;;;;23.83;12.23;;;;;;;7.20;47.75;98769.00;5013721;28;20186;-60
2022/03/11 10:46:49;;;;;;;30.67;13.10;;;;;;;7.27;48.14;98762.38;5014225;28;20185;-60
2022/03/11 10:49:32;;;;;;;24.87;12.90;;;;;;;7.44;47.48;98762.75;5014146;28;20190;-60
2022/03/11 10:52:00;;;;;;;22.07;13.10;;;;;;;7.51;47.65;98761.28;5013659;28;20202;-60
2022/03/11 10:54:29;;;;;;;23.27;14.37;;;;;;;7.61;47.55;98756.97;5013001;28;20202;-60
2022/03/11 10:57:09;;;;;;;24.43;14.30;;;;;;;7.74;47.07;98767.16;5013823;28;20792;-60
2022/03/11 10:59:36;;;;;;;24.20;13.53;;;;;;;7.71;47.49;98761.41;5013940;28;20274;-60
2022/03/11 11:02:04;;;;;;;25.73;13.20;;;;;;;7.85;46.82;98750.66;5013674;28;20212;-60
2022/03/11 11:04:32;;;;;;;22.37;13.10;;;;;;;7.87;46.87;98740.97;5013250;28;20263;-60
2022/03/11 11:06:59;;;;;;;26.97;14.73;;;;;;;7.92;47.39;98738.78;5013768;28;20646;-62
2022/03/11 11:09:28;;;;;;;23.93;14.33;;;;;;;8.06;46.16;98740.19;5013778;28;20203;-61
2022/03/11 11:11:55;;;;;;;26.27;14.17;;;;;;;8.05;46.88;98735.97;4995719;28;20329;-61
2022/03/11 11:14:22;;;;;;;23.63;13.67;;;;;;;8.18;46.17;98732.31;5013131;28;20180;-62
2022/03/11 11:16:50;;;;;;;24.83;13.53;;;;;;;8.34;46.27;98730.03;5012937;28;20290;-61
2022/03/11 11:19:19;;;;;;;25.10;13.07;;;;;;;8.37;45.57;98726.31;5013212;28;20218;-61
2022/03/11 11:21:47;;;;;;;23.53;13.07;;;;;;;8.45;45.98;98717.84;5013343;28;20212;-61
2022/03/11 11:24:15;;;;;;;25.90;13.03;;;;;;;8.61;46.21;98714.75;5012987;28;20187;-62
2022/03/11 11:26:46;;;;;;;20.53;13.43;;;;;;;8.68;44.73;98716.66;5013422;28;20238;-61
2022/03/11 11:29:17;;;;;;;26.57;14.23;;;;;;;8.77;44.61;98717.63;5013514;28;20192;-61
2022/03/11 11:31:45;;;;;;;24.07;13.57;;;;;;;8.80;45.09;98714.75;5013544;28;20205;-61
2022/03/11 11:34:27;;;;;;;27.50;13.50;;;;;;;8.92;44.43;98699.00;4995142;28;20607;-61
2022/03/11 11:36:54;;;;;;;29.33;13.97;;;;;;;9.13;43.75;98696.22;5013137;28;20209;-61
2022/03/11 11:39:25;;;;;;;26.50;13.47;;;;;;;9.20;43.71;98688.66;4995700;28;20696;-61
2022/03/11 11:41:54;;;;;;;26.53;14.00;;;;;;;9.32;43.48;98691.94;5012562;28;20558;-61